createdAt,value
2023-03-29T00:01:52.225Z,1.68
2023-03-29T00:04:20.790Z,1.62
2023-03-29T00:06:50.578Z,1.57
2023-03-29T00:09:18.341Z,1.56
2023-03-29T00:11:45.973Z,1.55
2023-03-29T00:14:13.142Z,1.50
2023-03-29T00:16:40.105Z,1.47
2023-03-29T00:19:06.855Z,1.42
2023-03-29T00:21:33.445Z,1.36
2023-03-29T00:24:00.579Z,1.35
2023-03-29T00:26:27.187Z,1.34
2023-03-29T00:28:53.765Z,1.35
2023-03-29T00:31:20.446Z,1.36
2023-03-29T00:33:47.622Z,1.33
2023-03-29T00:36:14.696Z,1.34
2023-03-29T00:38:41.685Z,1.31
2023-03-29T00:41:10.115Z,1.27
2023-03-29T00:43:52.851Z,1.22
2023-03-29T00:46:19.520Z,1.18
2023-03-29T00:48:46.657Z,1.18
2023-03-29T00:51:16.628Z,1.15
2023-03-29T00:53:48.973Z,1.15
2023-03-29T00:56:40.278Z,1.15
2023-03-29T00:59:14.080Z,1.17
2023-03-29T01:01:54.987Z,1.14
2023-03-29T01:04:33.997Z,1.12
2023-03-29T01:07:13.696Z,1.09
2023-03-29T01:09:45.594Z,1.07
2023-03-29T01:12:19.954Z,0.97
2023-03-29T01:15:13.866Z,0.89
2023-03-29T01:17:43.521Z,0.86
2023-03-29T01:20:21.064Z,0.84
2023-03-29T01:23:21.365Z,0.82
2023-03-29T01:26:01.133Z,0.85
2023-03-29T01:28:39.253Z,0.83
2023-03-29T01:31:12.794Z,0.84
2023-03-29T01:33:46.169Z,0.82
2023-03-29T01:36:19.299Z,0.74
2023-03-29T01:39:12.302Z,0.78
2023-03-29T01:41:40.154Z,0.79
2023-03-29T01:44:13.728Z,0.77
2023-03-29T01:46:48.417Z,0.72
2023-03-29T01:49:40.109Z,0.68
2023-03-29T01:52:19.170Z,0.66
2023-03-29T01:54:54.796Z,0.66
2023-03-29T01:57:25.181Z,0.65
2023-03-29T01:59:54.500Z,0.67
2023-03-29T02:02:23.453Z,0.63
2023-03-29T02:04:55.130Z,0.58
2023-03-29T02:07:26.493Z,0.57
2023-03-29T02:09:55.676Z,0.50
2023-03-29T02:12:22.870Z,0.48
2023-03-29T02:14:49.558Z,0.50
2023-03-29T02:17:20.725Z,0.49
2023-03-29T02:19:52.119Z,0.45
2023-03-29T02:22:24.851Z,0.43
2023-03-29T02:24:59.238Z,0.42
2023-03-29T02:27:29.191Z,0.41
2023-03-29T02:29:56.404Z,0.44
2023-03-29T02:32:33.556Z,0.46
2023-03-29T02:35:21.932Z,0.46
2023-03-29T02:37:52.971Z,0.47
2023-03-29T02:40:21.716Z,0.47
2023-03-29T02:42:49.125Z,0.51
2023-03-29T02:45:20.061Z,0.51
2023-03-29T02:47:53.611Z,0.51
2023-03-29T02:50:21.122Z,0.48
2023-03-29T02:52:54.946Z,0.48
2023-03-29T02:55:24.717Z,0.48
2023-03-29T02:57:51.472Z,0.52
2023-03-29T03:00:23.175Z,0.57
2023-03-29T03:02:53.415Z,0.63
2023-03-29T03:05:20.048Z,0.68
2023-03-29T03:07:47.069Z,0.68
2023-03-29T03:10:14.327Z,0.69
2023-03-29T03:12:42.860Z,0.71
2023-03-29T03:15:10.535Z,0.74
2023-03-29T03:17:40.063Z,0.76
2023-03-29T03:20:14.606Z,0.81
2023-03-29T03:22:44.285Z,0.80
2023-03-29T03:25:11.385Z,0.86
2023-03-29T03:27:38.554Z,0.90
2023-03-29T03:30:07.141Z,0.92
2023-03-29T03:32:36.811Z,0.95
2023-03-29T03:35:05.612Z,0.97
2023-03-29T03:37:32.404Z,1.01
2023-03-29T03:39:59.440Z,1.02
2023-03-29T03:42:29.581Z,1.05
2023-03-29T03:44:56.647Z,1.06
2023-03-29T03:47:23.760Z,1.09
2023-03-29T03:49:51.561Z,1.12
2023-03-29T03:52:19.151Z,1.19
2023-03-29T03:54:46.723Z,1.26
2023-03-29T03:57:13.557Z,1.28
2023-03-29T03:59:40.370Z,1.30
2023-03-29T04:02:07.514Z,1.31
2023-03-29T04:04:34.415Z,1.39
2023-03-29T04:07:04.372Z,1.50
2023-03-29T04:09:33.260Z,1.59
2023-03-29T04:12:01.565Z,1.61
2023-03-29T04:14:29.370Z,1.64
2023-03-29T04:16:56.067Z,1.71
2023-03-29T04:19:23.136Z,1.74
2023-03-29T04:21:51.282Z,1.78
2023-03-29T04:24:17.894Z,1.80
2023-03-29T04:26:44.648Z,1.88
2023-03-29T04:29:12.042Z,1.94
2023-03-29T04:31:38.703Z,2.01
2023-03-29T04:34:05.366Z,2.01
2023-03-29T04:36:32.143Z,2.00
2023-03-29T04:39:01.572Z,2.11
2023-03-29T04:41:28.783Z,2.19
2023-03-29T04:43:56.450Z,2.26
2023-03-29T04:46:26.751Z,2.34
2023-03-29T04:48:54.150Z,2.42
2023-03-29T04:51:22.494Z,2.57
2023-03-29T04:53:50.379Z,2.60
2023-03-29T04:56:17.335Z,2.64
2023-03-29T04:58:44.542Z,2.69
2023-03-29T05:01:11.429Z,2.77
2023-03-29T05:03:38.154Z,2.78
2023-03-29T05:06:12.207Z,2.83
2023-03-29T05:08:40.362Z,2.85
2023-03-29T05:11:10.343Z,2.84
2023-03-29T05:13:37.860Z,2.87
2023-03-29T05:16:04.819Z,2.95
2023-03-29T05:18:31.942Z,3.05
2023-03-29T05:21:01.857Z,3.15
2023-03-29T05:23:28.929Z,3.18
2023-03-29T05:25:55.549Z,3.27
2023-03-29T05:28:22.517Z,3.37
2023-03-29T16:59:06.664Z,3.68
2023-03-29T17:01:33.312Z,3.72
2023-03-29T17:03:59.976Z,3.81
2023-03-29T17:06:26.900Z,3.90
2023-03-29T17:08:53.828Z,3.93
2023-03-29T17:11:23.559Z,4.05
2023-03-29T17:13:53.993Z,4.08
2023-03-29T17:16:28.033Z,4.10
2023-03-29T17:18:54.713Z,4.15
2023-03-29T17:21:21.383Z,4.15
2023-03-29T17:23:47.931Z,4.15
2023-03-29T17:26:14.548Z,4.12
2023-03-29T17:28:44.315Z,4.10
2023-03-29T17:31:11.199Z,4.09
2023-03-29T17:33:37.964Z,4.12
2023-03-29T17:36:05.920Z,4.10
2023-03-29T17:38:36.790Z,4.12
2023-03-29T17:41:04.612Z,4.15
2023-03-29T17:43:31.919Z,4.14
2023-03-29T17:45:58.500Z,4.10
2023-03-29T17:48:25.764Z,4.08
2023-03-29T17:50:56.376Z,4.05
2023-03-29T17:53:23.048Z,4.01
2023-03-29T17:55:49.736Z,4.00
2023-03-29T17:58:19.481Z,3.97
2023-03-29T18:00:46.086Z,3.94
2023-03-29T18:03:12.782Z,3.92
2023-03-29T18:05:39.370Z,3.93
2023-03-29T18:08:06.159Z,3.91
2023-03-29T18:10:32.854Z,3.91
2023-03-29T18:13:00.602Z,3.92
2023-03-29T18:15:27.163Z,3.91
2023-03-29T18:17:54.608Z,3.93
2023-03-29T18:20:21.247Z,3.92
2023-03-29T18:22:47.872Z,3.96
2023-03-29T18:25:16.510Z,3.92
2023-03-29T18:27:43.052Z,3.92
2023-03-29T18:30:10.272Z,3.86
2023-03-29T18:32:37.932Z,3.79
2023-03-29T18:35:05.060Z,3.74
2023-03-29T18:37:31.911Z,3.73
2023-03-29T18:39:58.595Z,3.66
2023-03-29T18:42:25.270Z,3.59
2023-03-29T18:44:52.033Z,3.56
2023-03-29T18:47:20.057Z,3.50
2023-03-29T18:49:47.308Z,3.46
2023-03-29T18:52:14.247Z,3.42
2023-03-29T18:54:41.622Z,3.39
2023-03-29T18:57:09.292Z,3.38
2023-03-29T18:59:36.629Z,3.35
2023-03-29T19:02:07.037Z,3.33
2023-03-29T19:04:33.713Z,3.31
2023-03-29T19:07:01.462Z,3.31
2023-03-29T19:09:29.097Z,3.26
2023-03-29T19:11:55.759Z,3.24
2023-03-29T19:14:25.211Z,3.23
2023-03-29T19:16:53.097Z,3.21
2023-03-29T19:19:21.404Z,3.18
2023-03-29T19:21:48.057Z,3.19
2023-03-29T19:24:15.888Z,3.21
2023-03-29T19:26:44.458Z,3.22
2023-03-29T19:29:11.678Z,3.23
2023-03-29T19:31:38.477Z,3.29
2023-03-29T19:34:07.045Z,3.26
2023-03-29T19:36:33.857Z,3.27
2023-03-29T19:39:01.869Z,3.29
2023-03-29T19:41:28.754Z,3.30
2023-03-29T19:43:55.516Z,3.30
2023-03-29T19:46:23.217Z,3.28
2023-03-29T19:48:51.765Z,3.29
2023-03-29T19:51:18.338Z,3.27
2023-03-29T19:53:44.992Z,3.29
2023-03-29T19:56:13.266Z,3.27
2023-03-29T19:58:40.933Z,3.32
2023-03-29T20:01:08.439Z,3.30
2023-03-29T20:03:36.234Z,3.26
2023-03-29T20:06:03.164Z,3.26
2023-03-29T20:08:30.758Z,3.23
2023-03-29T20:11:03.849Z,3.21
2023-03-29T20:13:38.167Z,3.18
2023-03-29T20:16:10.047Z,3.21
2023-03-29T20:18:40.041Z,3.26
2023-03-29T20:21:08.038Z,3.28
2023-03-29T20:23:36.173Z,3.29
2023-03-29T20:26:03.275Z,3.28
2023-03-29T20:28:29.892Z,3.27
2023-03-29T20:30:57.208Z,3.26
2023-03-29T20:33:23.918Z,3.26
2023-03-29T20:35:50.574Z,3.25
2023-03-29T20:38:17.291Z,3.24
2023-03-29T20:40:44.907Z,3.24
2023-03-29T20:43:13.613Z,3.21
2023-03-29T20:45:52.738Z,3.22
2023-03-29T20:48:23.223Z,3.21
2023-03-29T20:50:50.587Z,3.19
2023-03-29T20:53:18.367Z,3.18
2023-03-29T20:55:45.316Z,3.13
2023-03-29T20:58:12.964Z,3.15
2023-03-29T21:00:40.455Z,3.10
2023-03-29T21:03:08.525Z,3.09
2023-03-29T21:05:35.772Z,3.08
2023-03-29T21:08:04.471Z,3.06
2023-03-29T21:10:31.326Z,3.02
2023-03-29T21:13:02.791Z,2.97
2023-03-29T21:15:30.820Z,2.97
2023-03-29T21:17:58.091Z,2.95
2023-03-29T21:20:25.049Z,2.90
2023-03-29T21:22:51.749Z,2.87
2023-03-29T21:25:19.182Z,2.84
2023-03-29T21:27:48.346Z,2.86
2023-03-29T21:30:15.120Z,2.92
2023-03-29T21:32:41.740Z,2.98
2023-03-29T21:35:09.223Z,3.02
2023-03-29T21:37:36.102Z,3.05
2023-03-29T21:40:05.992Z,3.06
2023-03-29T21:42:35.859Z,3.07
2023-03-29T21:45:03.334Z,3.10
2023-03-29T21:47:30.474Z,3.09
2023-03-29T21:49:57.345Z,3.10
2023-03-29T21:52:23.953Z,3.13
2023-03-29T21:54:50.618Z,3.16
2023-03-29T21:57:17.346Z,3.15
2023-03-29T21:59:44.834Z,3.15
2023-03-29T22:02:11.752Z,3.14
2023-03-29T22:04:38.473Z,3.13
2023-03-29T22:07:06.323Z,3.10
2023-03-29T22:09:35.023Z,3.13
2023-03-29T22:12:02.357Z,3.18
2023-03-29T22:14:30.291Z,3.24
2023-03-29T22:16:57.097Z,3.30
2023-03-29T22:19:23.860Z,3.34
2023-03-29T22:21:51.444Z,3.37
2023-03-29T22:24:18.491Z,3.39
2023-03-29T22:26:45.397Z,3.41
2023-03-29T22:29:12.304Z,3.45
2023-03-29T22:31:39.567Z,3.48
2023-03-29T22:34:06.914Z,3.49
2023-03-29T22:36:35.654Z,3.52
2023-03-29T22:39:02.255Z,3.53
2023-03-29T22:41:29.420Z,3.55
2023-03-29T22:43:58.227Z,3.57
2023-03-29T22:46:25.492Z,3.62
2023-03-29T22:48:52.571Z,3.69
2023-03-29T22:51:20.095Z,3.77
2023-03-29T22:53:47.196Z,3.86
2023-03-29T22:56:15.555Z,3.94
2023-03-29T22:58:43.606Z,4.02
2023-03-29T23:01:10.853Z,4.06
2023-03-29T23:03:38.475Z,4.09
2023-03-29T23:06:05.625Z,4.09
2023-03-29T23:08:33.821Z,4.12
2023-03-29T23:11:03.172Z,4.16
2023-03-29T23:13:30.343Z,4.22
2023-03-29T23:15:59.305Z,4.24
2023-03-29T23:18:28.696Z,4.31
2023-03-29T23:20:57.212Z,4.32
2023-03-29T23:23:25.695Z,4.35
2023-03-29T23:25:53.644Z,4.36
2023-03-29T23:28:23.473Z,4.35
2023-03-29T23:31:06.305Z,4.36
2023-03-29T23:33:35.593Z,4.39
2023-03-29T23:36:05.453Z,4.42
2023-03-29T23:38:34.524Z,4.42
2023-03-29T23:41:03.195Z,4.38
2023-03-29T23:43:32.913Z,4.41
2023-03-29T23:46:01.893Z,4.43
2023-03-29T23:48:28.924Z,4.45
2023-03-29T23:50:59.423Z,4.47
2023-03-29T23:53:29.544Z,4.49
2023-03-29T23:56:01.341Z,4.47
2023-03-29T23:58:29.897Z,4.37
